Accueil
METAR-TAF:

METAR-TAF

Aéroports :

Base aérienne de Thulé

Thulé, Groenland

latitude: 76-32N, longitude: 068-42W, altitude: 77 m

Observation

Le bulletin a été fait il y a 15 minutes, à 05:26 UTC
Vent 8 kt de est
Température -19°C
Humidité 92%
Pression 1014 hPa
Visibilité 10 km ou plus
Ciel couvert à une hauteur de 1100 ft

METAR: BGTL 160526Z AUTO 10008KT 9999 OVC011 M19/M20 A2993 RMK AO2 SLP127 TSNO CHINO RWY26 $

Heure: 01:41 (05:41 UTC)

Prévision

Le bulletin a été fait il y a 11 heures et 41 minutes, à 18:00 UTC
Prévision valable du 14 à 18 UTC au 15 à 24 UTC
Vent 9 kt de est/sud-est, variant entre est/nord-est et sud
Visibilité: 1510 m
Nuages épars à une hauteur de 7000 ft

TAF: BGTL 141800Z 1418/1524 11009KT 9999 SCT070 QNH2964INS WND 070V170 TXM19/1418Z TNM24/1512Z LAST NO AMDS AFT 1420 NEXT 1510

Observations et prévisions météorologiques de plus de 4000 aéroports (messages METAR et TAF).

Les stations disponibles sont représentées par des disques jaunes et rouges sur la carte.

Passer la souris dessus pour voir le nom de la station.

Cliquer dessus pour voir les observations et prévisions météorologiques.

Pour changer de carte: cliquez sur les boutons verts avec une croix noire pour zoomer, sur le bouton vert avec un tiret pour effectuer un zoom arrière, ou sur les flèches vertes pour les cartes adjacentes.


METAR-TAF: